Time;durP1;ratioP1;P1;durP2;ratioP2;P2;SDS_P1;SDS_P2;PMS_P1;PMS_P2;Temp;Humidity;BMP_temperature;BMP_pressure;BME280_temperature;BME280_humidity;BME280_pressure;Samples;Min_cycle;Max_cycle;Signal;HPM_P1;HPM_P2
2022/11/04 00:00:15;;;;;;;2.60;1.23;;;;;;;;;;4966368;28;20030;-64
2022/11/04 00:02:40;;;;;;;3.40;1.25;;;;;;;;;;4987056;28;20018;-64
2022/11/04 00:05:06;;;;;;;2.53;1.40;;;;;;;;;;4988848;28;20121;-64
2022/11/04 00:10:15;;;;;;;2.85;1.75;;;;;;;;;;4982613;28;20037;-64
2022/11/04 00:12:40;;;;;;;7.25;1.60;;;;;;;;;;4990745;28;20018;-63
2022/11/04 00:17:49;;;;;;;1.75;1.00;;;;;;;;;;4986331;28;20081;-63
2022/11/04 00:28:41;;;;;;;2.22;1.20;;;;;;;;;;4980830;28;20080;-63
2022/11/04 00:33:51;;;;;;;2.10;1.35;;;;;;;;;;4987325;28;20033;-63
2022/11/04 00:36:17;;;;;;;3.20;1.00;;;;;;;;;;4986389;28;20019;-63
2022/11/04 00:38:42;;;;;;;4.82;0.93;;;;;;;;;;4988937;28;20647;-64
2022/11/04 00:41:24;;;;;;;2.58;0.82;;;;;;;;;;4984450;28;20092;-63
2022/11/04 00:43:50;;;;;;;2.65;0.90;;;;;;;;;;4981012;28;20014;-63
2022/11/04 00:46:15;;;;;;;6.20;0.93;;;;;;;;;;4988874;28;20053;-64
2022/11/04 00:48:40;;;;;;;1.37;0.70;;;;;;;;;;4988309;28;20482;-64
2022/11/04 00:51:06;;;;;;;2.67;1.00;;;;;;;;;;4988032;28;20383;-64
2022/11/04 00:53:31;;;;;;;1.97;0.90;;;;;;;;;;4988457;28;20877;-64
2022/11/04 00:55:58;;;;;;;4.23;1.00;;;;;;;;;;4977663;28;20314;-62
2022/11/04 00:58:23;;;;;;;5.68;1.02;;;;;;;;;;4988191;28;20363;-64
2022/11/04 01:00:48;;;;;;;1.40;0.60;;;;;;;;;;4984692;28;20467;-63
2022/11/04 01:03:13;;;;;;;4.13;0.80;;;;;;;;;;4988236;28;20289;-63
2022/11/04 01:05:38;;;;;;;3.17;1.03;;;;;;;;;;4983783;28;20300;-63
2022/11/04 01:08:04;;;;;;;4.00;1.03;;;;;;;;;;4988386;28;20372;-64
2022/11/04 01:10:29;;;;;;;2.30;1.00;;;;;;;;;;4985897;28;20292;-63
2022/11/04 01:12:54;;;;;;;2.23;0.87;;;;;;;;;;4984262;28;20030;-65
2022/11/04 01:15:19;;;;;;;1.47;0.90;;;;;;;;;;4987536;28;20309;-64
2022/11/04 01:17:44;;;;;;;4.82;1.05;;;;;;;;;;4981236;28;20314;-64
2022/11/04 01:20:10;;;;;;;4.60;0.93;;;;;;;;;;4983719;28;20101;-64
2022/11/04 01:22:35;;;;;;;12.02;1.25;;;;;;;;;;4991226;28;20018;-64
2022/11/04 01:25:00;;;;;;;1.60;0.93;;;;;;;;;;4986989;28;20022;-64
2022/11/04 01:27:25;;;;;;;1.53;1.00;;;;;;;;;;4988883;28;20294;-64
2022/11/04 01:29:50;;;;;;;1.57;0.70;;;;;;;;;;4990475;28;20356;-64
2022/11/04 01:32:16;;;;;;;2.80;1.17;;;;;;;;;;4993433;28;20282;-64
2022/11/04 01:34:41;;;;;;;2.83;1.10;;;;;;;;;;4989015;28;20277;-64
2022/11/04 01:37:06;;;;;;;4.33;1.20;;;;;;;;;;4993847;28;20376;-63
2022/11/04 01:39:31;;;;;;;4.33;2.03;;;;;;;;;;4990537;28;20280;-63
2022/11/04 01:41:56;;;;;;;5.87;1.00;;;;;;;;;;4987309;28;20325;-64
2022/11/04 01:44:40;;;;;;;4.83;1.07;;;;;;;;;;5004932;28;20837;-64
2022/11/04 01:47:05;;;;;;;3.67;1.10;;;;;;;;;;4992035;28;20281;-63
2022/11/04 01:49:35;;;;;;;6.55;1.30;;;;;;;;;;4984877;28;20019;-63
2022/11/04 01:52:04;;;;;;;3.30;1.08;;;;;;;;;;4981010;28;20101;-64
2022/11/04 01:54:29;;;;;;;9.80;1.08;;;;;;;;;;4989490;28;20035;-62
2022/11/04 01:56:55;;;;;;;2.45;1.00;;;;;;;;;;4998944;28;20100;-64
2022/11/04 01:59:23;;;;;;;2.17;0.88;;;;;;;;;;4990069;28;20101;-64
2022/11/04 02:01:49;;;;;;;7.03;1.33;;;;;;;;;;4985289;28;20030;-64
2022/11/04 02:04:26;;;;;;;2.90;0.90;;;;;;;;;;4987484;28;20030;-64
2022/11/04 02:06:56;;;;;;;5.78;0.80;;;;;;;;;;4981638;28;20022;-64
2022/11/04 02:09:22;;;;;;;3.70;1.50;;;;;;;;;;4991161;28;20018;-65
2022/11/04 02:14:31;;;;;;;3.00;0.88;;;;;;;;;;4987569;28;20254;-65
2022/11/04 02:17:03;;;;;;;2.88;0.85;;;;;;;;;;4993841;28;20031;-65
2022/11/04 02:19:47;;;;;;;2.90;0.80;;;;;;;;;;4980007;28;20050;-64
2022/11/04 02:22:12;;;;;;;1.73;0.60;;;;;;;;;;4994045;28;20101;-64
2022/11/04 02:24:59;;;;;;;4.47;0.93;;;;;;;;;;4982458;28;20555;-64
2022/11/04 02:27:25;;;;;;;4.57;0.90;;;;;;;;;;4990538;28;20345;-65
2022/11/04 02:29:58;;;;;;;5.00;0.90;;;;;;;;;;4987403;28;20046;-64
2022/11/04 02:32:31;;;;;;;3.88;0.80;;;;;;;;;;4990909;28;20375;-64
2022/11/04 02:35:07;;;;;;;4.45;0.82;;;;;;;;;;4988076;28;20492;-65
2022/11/04 02:37:39;;;;;;;4.63;1.08;;;;;;;;;;4986779;28;20034;-64
2022/11/04 02:40:23;;;;;;;9.13;1.00;;;;;;;;;;4989982;28;20584;-64
2022/11/04 02:42:54;;;;;;;1.58;0.75;;;;;;;;;;4990068;28;20010;-64
2022/11/04 02:45:32;;;;;;;4.88;0.85;;;;;;;;;;4988196;28;20026;-65
2022/11/04 02:48:02;;;;;;;8.20;0.77;;;;;;;;;;4991786;28;20510;-64
2022/11/04 02:50:32;;;;;;;2.80;0.77;;;;;;;;;;4988547;28;20022;-63
2022/11/04 02:53:09;;;;;;;4.55;0.93;;;;;;;;;;4986341;28;20109;-64
2022/11/04 02:55:37;;;;;;;8.48;1.35;;;;;;;;;;4984387;28;20499;-64
2022/11/04 02:58:04;;;;;;;5.82;0.90;;;;;;;;;;4991322;28;20023;-64
2022/11/04 03:00:30;;;;;;;14.05;1.25;;;;;;;;;;4983307;28;20030;-64
2022/11/04 03:03:05;;;;;;;6.10;1.10;;;;;;;;;;4986846;28;20491;-65
2022/11/04 03:05:32;;;;;;;8.95;1.27;;;;;;;;;;4977010;28;20062;-64
2022/11/04 03:08:00;;;;;;;9.85;1.10;;;;;;;;;;4989655;28;20041;-64
2022/11/04 03:10:34;;;;;;;5.95;1.20;;;;;;;;;;4988866;28;20018;-64
2022/11/04 03:13:03;;;;;;;4.47;0.90;;;;;;;;;;4981977;28;20032;-64
2022/11/04 03:15:30;;;;;;;3.13;0.85;;;;;;;;;;4977483;28;20022;-64
2022/11/04 03:17:55;;;;;;;12.52;1.00;;;;;;;;;;4977910;28;20019;-64
2022/11/04 03:20:22;;;;;;;5.25;0.95;;;;;;;;;;4986865;28;20025;-65
2022/11/04 03:22:47;;;;;;;7.28;1.10;;;;;;;;;;4987620;28;20282;-63
2022/11/04 03:25:13;;;;;;;12.23;1.13;;;;;;;;;;4987522;28;20033;-64
2022/11/04 03:27:57;;;;;;;5.32;0.85;;;;;;;;;;4978693;28;20027;-64
2022/11/04 03:30:22;;;;;;;10.82;1.20;;;;;;;;;;4982365;28;20018;-65
2022/11/04 03:32:56;;;;;;;2.83;1.05;;;;;;;;;;4981525;28;20041;-64
2022/11/04 03:35:22;;;;;;;5.60;1.25;;;;;;;;;;4984198;28;20030;-63
2022/11/04 03:37:48;;;;;;;4.57;1.00;;;;;;;;;;4986201;28;20030;-64
2022/11/04 03:40:14;;;;;;;4.28;0.98;;;;;;;;;;4990235;28;20018;-64
2022/11/04 03:42:42;;;;;;;2.75;0.98;;;;;;;;;;4991126;28;20029;-65
2022/11/04 03:45:08;;;;;;;7.05;1.15;;;;;;;;;;4987442;28;20058;-64
2022/11/04 03:47:33;;;;;;;5.35;0.90;;;;;;;;;;4986856;28;20103;-65
2022/11/04 03:50:19;;;;;;;3.15;0.98;;;;;;;;;;4989637;28;20106;-64
2022/11/04 03:52:44;;;;;;;5.50;1.10;;;;;;;;;;4989169;28;20029;-64
2022/11/04 03:55:11;;;;;;;4.97;1.17;;;;;;;;;;4984526;28;20030;-64
2022/11/04 03:57:48;;;;;;;4.72;1.23;;;;;;;;;;4978668;28;20479;-64
2022/11/04 04:00:18;;;;;;;13.82;1.23;;;;;;;;;;4980473;28;20303;-65
2022/11/04 04:02:48;;;;;;;9.57;1.13;;;;;;;;;;4982908;28;20061;-65
2022/11/04 04:05:20;;;;;;;6.00;2.00;;;;;;;;;;4990352;28;20026;-65
2022/11/04 04:07:48;;;;;;;7.97;2.47;;;;;;;;;;4979652;28;20048;-63
2022/11/04 04:13:02;;;;;;;4.70;1.80;;;;;;;;;;4991907;28;20025;-63
2022/11/04 04:15:37;;;;;;;6.05;1.20;;;;;;;;;;5013870;23;20468;-66
2022/11/04 04:18:03;;;;;;;9.68;1.98;;;;;;;;;;5013063;28;20028;-66
2022/11/04 04:20:31;;;;;;;12.80;2.20;;;;;;;;;;5004057;28;20017;-66
2022/11/04 04:22:59;;;;;;;10.18;3.50;;;;;;;;;;5012102;28;20021;-66
2022/11/04 04:28:11;;;;;;;9.93;5.35;;;;;;;;;;5029479;28;20062;-66
2022/11/04 04:30:37;;;;;;;17.42;4.63;;;;;;;;;;5025788;28;20028;-66
2022/11/04 04:33:06;;;;;;;6.95;2.20;;;;;;;;;;5028017;28;20026;-66
2022/11/04 04:35:42;;;;;;;6.25;2.17;;;;;;;;;;5024759;28;20108;-65
2022/11/04 04:46:36;;;;;;;4.00;1.15;;;;;;;;;;5026865;28;20044;-66
2022/11/04 04:49:08;;;;;;;11.45;2.00;;;;;;;;;;5026514;28;20473;-66
2022/11/04 04:51:35;;;;;;;7.55;1.08;;;;;;;;;;5027458;28;20021;-66
2022/11/04 04:54:00;;;;;;;8.50;1.30;;;;;;;;;;5027358;28;20033;-66
2022/11/04 04:56:25;;;;;;;5.30;1.38;;;;;;;;;;5035911;28;20029;-66
2022/11/04 04:58:50;;;;;;;13.03;1.60;;;;;;;;;;5029060;28;20474;-66
2022/11/04 05:01:15;;;;;;;7.17;1.73;;;;;;;;;;5032308;28;20287;-66
2022/11/04 05:03:40;;;;;;;8.17;1.80;;;;;;;;;;5031038;28;20823;-66
2022/11/04 05:06:06;;;;;;;11.60;1.38;;;;;;;;;;5029458;28;20280;-66
2022/11/04 05:08:31;;;;;;;8.13;1.23;;;;;;;;;;5030208;28;20021;-66
2022/11/04 05:10:57;;;;;;;4.00;1.23;;;;;;;;;;5029325;28;20021;-66
2022/11/04 05:13:25;;;;;;;4.93;1.55;;;;;;;;;;5029700;28;20474;-66
2022/11/04 05:15:51;;;;;;;8.23;1.70;;;;;;;;;;5030090;28;20036;-66
2022/11/04 05:18:16;;;;;;;5.93;1.50;;;;;;;;;;5030037;28;20022;-66
2022/11/04 05:20:41;;;;;;;6.18;1.50;;;;;;;;;;5032251;28;20056;-66
2022/11/04 05:23:07;;;;;;;7.70;1.30;;;;;;;;;;5029309;28;20393;-66
2022/11/04 05:25:32;;;;;;;5.03;1.00;;;;;;;;;;5031065;28;20025;-66
2022/11/04 05:27:58;;;;;;;11.25;1.58;;;;;;;;;;5032267;28;20492;-66
2022/11/04 05:30:23;;;;;;;8.90;1.58;;;;;;;;;;5029370;28;20025;-66
2022/11/04 05:32:49;;;;;;;11.00;1.00;;;;;;;;;;5028586;28;20018;-66
2022/11/04 05:35:14;;;;;;;4.78;1.10;;;;;;;;;;5037482;28;20334;-66
2022/11/04 05:37:39;;;;;;;8.93;1.40;;;;;;;;;;5025283;28;20473;-66
2022/11/04 05:40:04;;;;;;;5.13;1.13;;;;;;;;;;5031403;28;20389;-66
2022/11/04 05:42:30;;;;;;;9.55;1.65;;;;;;;;;;5033269;28;20272;-66
2022/11/04 05:44:55;;;;;;;7.45;1.35;;;;;;;;;;5025329;28;20033;-66
2022/11/04 05:47:20;;;;;;;13.60;1.43;;;;;;;;;;5028252;28;20100;-66
2022/11/04 05:49:45;;;;;;;6.30;1.47;;;;;;;;;;5031356;28;20679;-66
2022/11/04 05:52:10;;;;;;;6.17;1.10;;;;;;;;;;5031962;28;20307;-66
2022/11/04 05:54:37;;;;;;;4.60;0.97;;;;;;;;;;5030081;28;20855;-66
2022/11/04 05:57:03;;;;;;;11.82;3.15;;;;;;;;;;5029666;28;20287;-66
2022/11/04 05:59:28;;;;;;;8.40;1.40;;;;;;;;;;5030251;28;20026;-66
2022/11/04 06:01:53;;;;;;;6.03;1.10;;;;;;;;;;5029242;28;20364;-66
2022/11/04 06:04:18;;;;;;;6.87;1.33;;;;;;;;;;5031731;28;20272;-66
2022/11/04 06:06:43;;;;;;;7.60;1.17;;;;;;;;;;5028616;28;20326;-66
2022/11/04 06:09:09;;;;;;;9.05;1.58;;;;;;;;;;5027331;28;20276;-66
2022/11/04 06:11:35;;;;;;;9.40;2.42;;;;;;;;;;5024390;28;20025;-66
2022/11/04 06:14:00;;;;;;;12.38;2.00;;;;;;;;;;5030265;28;20105;-65
2022/11/04 06:16:25;;;;;;;11.25;1.60;;;;;;;;;;5028723;28;20018;-66
2022/11/04 06:18:51;;;;;;;4.33;1.20;;;;;;;;;;5025645;28;20017;-66
2022/11/04 06:21:17;;;;;;;12.07;2.22;;;;;;;;;;5025323;28;20367;-66
2022/11/04 06:23:43;;;;;;;6.70;1.45;;;;;;;;;;5026086;28;20017;-66
2022/11/04 06:26:09;;;;;;;9.05;1.65;;;;;;;;;;5029094;28;20026;-66
2022/11/04 06:28:34;;;;;;;9.40;1.50;;;;;;;;;;5030062;28;20059;-66
2022/11/04 06:31:01;;;;;;;10.85;2.65;;;;;;;;;;5025588;28;20021;-66
2022/11/04 06:33:27;;;;;;;12.07;1.52;;;;;;;;;;5024988;28;20029;-66
2022/11/04 06:35:55;;;;;;;7.63;1.65;;;;;;;;;;5025189;28;20026;-66
2022/11/04 06:38:20;;;;;;;8.18;1.38;;;;;;;;;;5022615;28;20018;-66
2022/11/04 06:40:46;;;;;;;6.87;1.77;;;;;;;;;;5024343;28;20024;-66
2022/11/04 06:43:11;;;;;;;5.20;1.13;;;;;;;;;;5017775;28;20284;-66
2022/11/04 06:45:36;;;;;;;8.83;1.30;;;;;;;;;;5028287;28;20508;-67
2022/11/04 06:48:01;;;;;;;8.33;1.40;;;;;;;;;;5027481;28;20267;-66
2022/11/04 06:50:26;;;;;;;8.97;1.30;;;;;;;;;;5026396;28;20624;-66
2022/11/04 06:52:51;;;;;;;8.37;1.57;;;;;;;;;;5027218;28;20367;-66
2022/11/04 06:55:17;;;;;;;5.27;1.23;;;;;;;;;;5030541;28;20267;-66
2022/11/04 06:57:42;;;;;;;4.03;0.98;;;;;;;;;;5031676;28;20374;-66
2022/11/04 07:00:07;;;;;;;5.17;1.40;;;;;;;;;;5025832;28;20049;-66
2022/11/04 07:02:32;;;;;;;5.80;1.70;;;;;;;;;;5028695;28;20279;-66
2022/11/04 07:04:58;;;;;;;7.10;1.77;;;;;;;;;;5029316;28;20009;-66
2022/11/04 07:07:23;;;;;;;16.63;1.20;;;;;;;;;;5027201;28;20364;-66
2022/11/04 07:09:48;;;;;;;4.05;1.33;;;;;;;;;;5026387;28;20291;-66
2022/11/04 07:12:13;;;;;;;11.83;1.63;;;;;;;;;;5028830;28;20063;-66
2022/11/04 07:14:38;;;;;;;5.10;1.50;;;;;;;;;;5025725;28;20753;-66
2022/11/04 07:17:04;;;;;;;8.02;1.40;;;;;;;;;;5020403;28;20280;-66
2022/11/04 07:19:29;;;;;;;5.07;0.65;;;;;;;;;;5023863;28;20024;-66
2022/11/04 07:21:54;;;;;;;6.30;1.17;;;;;;;;;;5025118;28;20032;-66
2022/11/04 07:24:19;;;;;;;7.17;0.87;;;;;;;;;;5027285;28;20268;-66
2022/11/04 07:26:44;;;;;;;7.45;1.65;;;;;;;;;;5019338;28;20286;-65
2022/11/04 07:29:10;;;;;;;4.20;0.82;;;;;;;;;;5025700;28;20048;-66
2022/11/04 07:31:35;;;;;;;8.40;1.98;;;;;;;;;;5030704;28;20017;-66
2022/11/04 07:34:01;;;;;;;4.68;1.00;;;;;;;;;;5029329;28;20045;-66
2022/11/04 07:36:27;;;;;;;9.40;1.30;;;;;;;;;;5028634;28;20546;-65
2022/11/04 07:38:53;;;;;;;8.32;0.98;;;;;;;;;;5026954;28;20017;-66
2022/11/04 07:41:18;;;;;;;4.07;0.65;;;;;;;;;;5028051;28;20030;-66
2022/11/04 07:43:47;;;;;;;5.68;1.00;;;;;;;;;;5024579;28;20108;-66
2022/11/04 07:46:13;;;;;;;13.48;1.58;;;;;;;;;;5022108;28;20037;-66
2022/11/04 07:48:38;;;;;;;4.65;0.90;;;;;;;;;;5022246;28;20430;-66
2022/11/04 07:51:05;;;;;;;5.20;1.33;;;;;;;;;;5025567;28;20017;-66
2022/11/04 07:53:30;;;;;;;10.23;1.05;;;;;;;;;;5027792;28;20032;-66
2022/11/04 07:55:56;;;;;;;2.40;1.07;;;;;;;;;;5026272;28;20022;-66
2022/11/04 07:58:21;;;;;;;6.07;0.95;;;;;;;;;;5017663;28;20713;-66
2022/11/04 08:00:47;;;;;;;14.18;1.85;;;;;;;;;;5017915;28;20055;-66
2022/11/04 08:03:12;;;;;;;10.85;1.65;;;;;;;;;;5018271;28;20056;-66
2022/11/04 08:05:37;;;;;;;9.83;1.30;;;;;;;;;;5017095;28;20422;-67
2022/11/04 08:08:02;;;;;;;13.35;1.63;;;;;;;;;;5021488;28;20333;-67
2022/11/04 08:10:28;;;;;;;11.27;1.73;;;;;;;;;;5021966;28;20040;-67
2022/11/04 08:12:53;;;;;;;11.13;2.03;;;;;;;;;;5020420;28;20477;-67
2022/11/04 08:15:18;;;;;;;7.95;2.15;;;;;;;;;;5018961;28;20065;-67
2022/11/04 08:17:43;;;;;;;7.47;1.77;;;;;;;;;;5020426;28;20029;-67
2022/11/04 08:20:09;;;;;;;8.38;2.10;;;;;;;;;;5017970;28;20652;-67
2022/11/04 08:22:34;;;;;;;9.38;2.47;;;;;;;;;;5020537;28;20386;-67
2022/11/04 08:24:59;;;;;;;8.47;2.40;;;;;;;;;;5021972;28;20056;-67
2022/11/04 08:27:24;;;;;;;13.52;3.30;;;;;;;;;;5021150;28;20783;-67
2022/11/04 08:29:50;;;;;;;17.33;4.35;;;;;;;;;;5016252;28;20030;-67
2022/11/04 08:32:15;;;;;;;6.68;2.78;;;;;;;;;;5013452;28;20021;-67
2022/11/04 08:34:40;;;;;;;10.00;2.20;;;;;;;;;;5021618;28;20029;-67
2022/11/04 08:37:06;;;;;;;5.90;2.45;;;;;;;;;;5023608;28;20306;-67
2022/11/04 08:39:31;;;;;;;13.40;2.47;;;;;;;;;;5023723;28;20548;-67
2022/11/04 08:41:56;;;;;;;6.07;2.15;;;;;;;;;;5018758;28;21600;-67
2022/11/04 08:44:22;;;;;;;10.85;2.63;;;;;;;;;;5023483;28;20627;-67
2022/11/04 08:46:48;;;;;;;5.45;2.10;;;;;;;;;;5017875;28;20034;-67
2022/11/04 08:49:13;;;;;;;6.80;2.20;;;;;;;;;;5020719;28;20022;-66
2022/11/04 08:51:40;;;;;;;10.25;1.45;;;;;;;;;;5016990;28;20041;-67
2022/11/04 08:54:05;;;;;;;9.38;1.35;;;;;;;;;;5024203;28;20075;-67
2022/11/04 08:56:32;;;;;;;13.02;1.95;;;;;;;;;;5021276;28;22415;-67
2022/11/04 08:58:58;;;;;;;11.48;2.05;;;;;;;;;;5026555;28;20079;-66
2022/11/04 09:01:24;;;;;;;8.00;1.85;;;;;;;;;;5013835;28;20022;-66
2022/11/04 09:03:49;;;;;;;10.25;1.80;;;;;;;;;;5025813;28;20026;-66
2022/11/04 09:06:18;;;;;;;10.35;1.58;;;;;;;;;;5021753;28;20433;-66
2022/11/04 09:08:44;;;;;;;9.00;2.17;;;;;;;;;;5027179;28;20040;-66
2022/11/04 09:11:10;;;;;;;7.07;2.97;;;;;;;;;;5023308;28;20037;-66
2022/11/04 09:13:36;;;;;;;8.50;1.42;;;;;;;;;;5019431;28;20033;-67
2022/11/04 09:16:01;;;;;;;10.07;2.65;;;;;;;;;;5024906;28;20025;-66
2022/11/04 09:18:26;;;;;;;11.75;1.30;;;;;;;;;;5020864;28;20091;-66
2022/11/04 09:20:52;;;;;;;5.27;1.50;;;;;;;;;;5023888;28;20025;-66
2022/11/04 09:23:17;;;;;;;4.40;1.87;;;;;;;;;;5023908;28;20335;-67
2022/11/04 09:25:42;;;;;;;4.72;1.38;;;;;;;;;;5021499;28;20299;-66
2022/11/04 09:28:07;;;;;;;10.43;1.90;;;;;;;;;;5023522;28;20478;-66
2022/11/04 09:30:33;;;;;;;8.03;1.70;;;;;;;;;;5025473;28;20084;-67
2022/11/04 09:32:58;;;;;;;10.25;1.40;;;;;;;;;;5021603;28;20280;-66
2022/11/04 09:35:23;;;;;;;6.65;1.48;;;;;;;;;;5024496;28;20378;-66
2022/11/04 09:37:49;;;;;;;5.28;1.10;;;;;;;;;;5024034;28;20013;-66
2022/11/04 09:40:16;;;;;;;4.15;1.02;;;;;;;;;;5024814;28;20041;-66
2022/11/04 09:42:47;;;;;;;11.63;1.27;;;;;;;;;;5022995;28;20026;-66
2022/11/04 09:45:17;;;;;;;1.83;0.68;;;;;;;;;;5022987;28;20039;-66
2022/11/04 09:47:43;;;;;;;8.10;1.10;;;;;;;;;;5026108;28;20026;-67
2022/11/04 09:50:13;;;;;;;3.60;0.90;;;;;;;;;;5022335;28;20029;-67
2022/11/04 09:52:43;;;;;;;8.15;1.42;;;;;;;;;;5015075;28;20041;-66
2022/11/04 09:55:08;;;;;;;10.48;1.33;;;;;;;;;;5022304;28;20037;-67
2022/11/04 09:57:33;;;;;;;8.65;1.38;;;;;;;;;;5025209;28;20022;-67
2022/11/04 09:59:59;;;;;;;9.70;1.83;;;;;;;;;;5019171;28;20022;-66
2022/11/04 10:02:51;;;;;;;6.90;1.30;;;;;;;;;;5019824;28;20100;-67
2022/11/04 10:05:16;;;;;;;9.73;1.25;;;;;;;;;;4990612;28;20034;-67
2022/11/04 10:08:00;;;;;;;6.17;1.50;;;;;;;;;;5020145;28;20090;-66
2022/11/04 10:10:44;;;;;;;9.32;1.88;;;;;;;;;;5024367;28;20287;-66
2022/11/04 10:13:28;;;;;;;7.65;1.02;;;;;;;;;;5031091;28;20462;-66
2022/11/04 10:18:28;;;;;;;4.35;1.55;;;;;;;;;;5003298;28;20054;-67
2022/11/04 10:21:03;;;;;;;7.22;1.30;;;;;;;;;;5010441;28;20013;-67
2022/11/04 10:23:37;;;;;;;8.50;1.40;;;;;;;;;;5005075;28;20060;-67
2022/11/04 10:26:08;;;;;;;6.05;1.83;;;;;;;;;;5004378;28;20475;-67
2022/11/04 10:28:41;;;;;;;9.50;1.63;;;;;;;;;;4985877;28;20041;-67
2022/11/04 10:31:07;;;;;;;4.70;0.68;;;;;;;;;;4980263;28;20715;-67
2022/11/04 10:33:34;;;;;;;4.53;0.98;;;;;;;;;;4989022;28;20033;-67
2022/11/04 10:36:00;;;;;;;6.35;1.10;;;;;;;;;;4987058;28;20031;-67
2022/11/04 10:38:41;;;;;;;3.30;1.23;;;;;;;;;;4982253;28;20620;-67
2022/11/04 10:41:25;;;;;;;6.10;1.42;;;;;;;;;;4984334;28;20396;-67
2022/11/04 10:43:52;;;;;;;8.70;1.05;;;;;;;;;;4984237;28;20018;-67
2022/11/04 10:46:18;;;;;;;9.25;1.05;;;;;;;;;;4990605;28;20033;-67
2022/11/04 10:48:49;;;;;;;9.27;1.58;;;;;;;;;;4987366;28;20395;-67
2022/11/04 10:51:19;;;;;;;10.60;1.77;;;;;;;;;;4985378;28;20033;-67
2022/11/04 10:53:44;;;;;;;3.28;1.25;;;;;;;;;;4983379;28;20399;-67
2022/11/04 10:56:19;;;;;;;9.65;1.80;;;;;;;;;;4987847;28;20149;-67
2022/11/04 10:58:45;;;;;;;8.90;2.50;;;;;;;;;;4978946;28;20030;-67
2022/11/04 11:01:27;;;;;;;6.68;1.65;;;;;;;;;;4989739;28;20026;-67
2022/11/04 11:03:53;;;;;;;6.65;1.98;;;;;;;;;;4985722;28;20026;-67
2022/11/04 11:06:18;;;;;;;10.90;1.80;;;;;;;;;;4979232;28;20026;-67
2022/11/04 11:08:43;;;;;;;5.53;1.45;;;;;;;;;;4980829;28;20356;-67
2022/11/04 11:11:09;;;;;;;7.68;1.38;;;;;;;;;;4988830;28;20038;-67
2022/11/04 11:13:39;;;;;;;8.82;1.45;;;;;;;;;;4985206;28;20027;-67
2022/11/04 11:16:18;;;;;;;6.80;1.70;;;;;;;;;;4986309;28;20398;-67
2022/11/04 11:18:43;;;;;;;11.13;1.80;;;;;;;;;;4985062;28;20728;-67
2022/11/04 11:21:10;;;;;;;7.88;1.60;;;;;;;;;;4987330;28;20101;-67
2022/11/04 11:23:40;;;;;;;11.48;2.00;;;;;;;;;;4978027;28;20026;-67
2022/11/04 11:26:13;;;;;;;13.25;2.20;;;;;;;;;;4994487;28;20314;-67
2022/11/04 11:28:39;;;;;;;8.80;2.40;;;;;;;;;;4986444;28;20025;-67
2022/11/04 11:31:12;;;;;;;16.58;3.13;;;;;;;;;;4992192;28;20026;-67
2022/11/04 11:33:40;;;;;;;15.18;2.13;;;;;;;;;;4992249;28;20030;-67
2022/11/04 11:36:11;;;;;;;7.40;2.20;;;;;;;;;;4980293;28;20041;-67
2022/11/04 11:38:37;;;;;;;11.13;2.80;;;;;;;;;;4975599;28;20029;-66
2022/11/04 11:41:07;;;;;;;11.40;2.53;;;;;;;;;;4978313;28;20019;-67
2022/11/04 11:43:32;;;;;;;;;;;;;;;;;;4995031;28;20022;-67
2022/11/04 11:45:59;;;;;;;14.75;2.25;;;;;;;;;;4979881;28;19937;-67
2022/11/04 11:48:30;;;;;;;11.82;2.67;;;;;;;;;;4993589;28;20026;-67
2022/11/04 11:50:58;;;;;;;9.27;2.13;;;;;;;;;;4975636;28;20049;-67
2022/11/04 11:53:24;;;;;;;7.82;1.90;;;;;;;;;;4989085;28;20826;-67
2022/11/04 11:55:56;;;;;;;7.88;1.52;;;;;;;;;;4983390;28;20105;-67
2022/11/04 11:58:27;;;;;;;11.00;1.58;;;;;;;;;;4979122;28;20086;-67
2022/11/04 12:00:52;;;;;;;6.43;1.38;;;;;;;;;;4985352;28;20387;-67
2022/11/04 12:03:29;;;;;;;12.13;3.40;;;;;;;;;;4983707;28;20033;-67
2022/11/04 12:06:14;;;;;;;9.27;2.72;;;;;;;;;;4986605;28;20042;-67
2022/11/04 12:08:57;;;;;;;5.55;1.58;;;;;;;;;;4981135;28;20529;-67
2022/11/04 12:11:25;;;;;;;13.27;2.40;;;;;;;;;;4985478;28;20393;-67
2022/11/04 12:13:59;;;;;;;11.15;2.25;;;;;;;;;;4988038;28;20019;-67
2022/11/04 12:16:31;;;;;;;7.38;1.95;;;;;;;;;;4981906;28;20065;-67
2022/11/04 12:19:14;;;;;;;8.38;1.90;;;;;;;;;;4992338;28;20026;-67
2022/11/04 12:21:45;;;;;;;6.90;1.83;;;;;;;;;;4985927;28;20470;-67
2022/11/04 12:24:13;;;;;;;12.00;2.05;;;;;;;;;;4981919;28;20060;-67
2022/11/04 12:26:47;;;;;;;10.30;2.03;;;;;;;;;;4979937;28;20081;-67
2022/11/04 12:29:31;;;;;;;12.25;1.50;;;;;;;;;;4977734;28;20026;-66
2022/11/04 12:32:02;;;;;;;15.32;1.88;;;;;;;;;;4978445;28;20469;-67
2022/11/04 12:34:47;;;;;;;11.70;1.75;;;;;;;;;;4982492;28;20071;-67
2022/11/04 12:37:27;;;;;;;9.00;2.03;;;;;;;;;;5001410;28;20128;-67
2022/11/04 12:40:03;;;;;;;9.43;1.80;;;;;;;;;;4993606;28;20647;-67
2022/11/04 12:42:31;;;;;;;10.52;2.10;;;;;;;;;;4974962;28;20080;-67
2022/11/04 12:45:11;;;;;;;10.38;2.00;;;;;;;;;;4974219;28;20475;-67
2022/11/04 12:47:36;;;;;;;;;;;;;;;;;;4984529;28;20117;-67
2022/11/04 12:50:14;;;;;;;8.17;1.97;;;;;;;;;;4986437;28;20049;-67
2022/11/04 12:52:42;;;;;;;7.75;1.80;;;;;;;;;;4985137;28;21437;-67
2022/11/04 12:55:07;;;;;;;8.95;2.45;;;;;;;;;;4978538;28;20030;-67
2022/11/04 12:57:43;;;;;;;11.20;2.28;;;;;;;;;;4981565;28;20068;-67
2022/11/04 13:00:13;;;;;;;8.38;2.10;;;;;;;;;;4990044;28;20026;-66
2022/11/04 13:02:47;;;;;;;8.40;2.17;;;;;;;;;;4974658;28;20019;-67
2022/11/04 13:05:12;;;;;;;10.98;2.47;;;;;;;;;;4986831;28;20487;-67
2022/11/04 13:07:51;;;;;;;6.90;1.80;;;;;;;;;;4988649;28;20033;-67
2022/11/04 13:10:22;;;;;;;10.45;2.03;;;;;;;;;;4981000;28;20265;-67
2022/11/04 13:12:47;;;;;;;17.33;3.50;;;;;;;;;;4980437;28;20120;-67
2022/11/04 13:15:18;;;;;;;13.85;2.15;;;;;;;;;;4983850;28;20073;-67
2022/11/04 13:17:44;;;;;;;8.15;2.20;;;;;;;;;;4986874;28;20031;-67
2022/11/04 13:20:12;;;;;;;8.65;2.00;;;;;;;;;;4983886;28;20030;-67
2022/11/04 13:22:38;;;;;;;8.52;1.83;;;;;;;;;;4984109;28;20031;-67
2022/11/04 13:25:06;;;;;;;6.70;1.90;;;;;;;;;;4985933;28;20031;-67
2022/11/04 13:27:36;;;;;;;8.35;2.20;;;;;;;;;;4994677;28;20030;-67
2022/11/04 13:30:07;;;;;;;10.77;1.90;;;;;;;;;;4987813;28;20030;-67
2022/11/04 13:32:37;;;;;;;12.40;2.63;;;;;;;;;;4986511;28;20053;-67
2022/11/04 13:35:05;;;;;;;10.13;2.22;;;;;;;;;;4986435;28;20060;-67
2022/11/04 13:37:41;;;;;;;18.92;3.42;;;;;;;;;;4980899;28;20439;-66
2022/11/04 13:40:21;;;;;;;9.60;2.42;;;;;;;;;;4988346;28;20033;-67
2022/11/04 13:43:49;;;;;;;12.27;2.20;;;;;;;;;;4993988;28;20079;-69
2022/11/04 13:45:49;;;;;;;11.15;2.20;;;;;;;;;;4977267;28;20089;-67
2022/11/04 13:48:17;;;;;;;7.45;2.00;;;;;;;;;;4979067;28;20118;-67
2022/11/04 13:50:42;;;;;;;10.18;2.10;;;;;;;;;;4978904;28;20019;-67
2022/11/04 13:53:09;;;;;;;8.67;2.17;;;;;;;;;;4988440;28;20424;-67
2022/11/04 13:55:35;;;;;;;7.70;1.63;;;;;;;;;;4983855;28;20680;-69
2022/11/04 13:58:01;;;;;;;8.73;1.80;;;;;;;;;;4987924;28;20034;-68
2022/11/04 14:00:27;;;;;;;5.72;1.50;;;;;;;;;;4987118;28;20105;-68
2022/11/04 14:02:52;;;;;;;11.48;2.08;;;;;;;;;;4978271;28;20030;-67
2022/11/04 14:05:26;;;;;;;8.65;1.80;;;;;;;;;;4983334;28;20054;-67
2022/11/04 14:08:00;;;;;;;13.10;2.05;;;;;;;;;;4984416;28;20114;-68
2022/11/04 14:10:44;;;;;;;17.70;3.10;;;;;;;;;;4985362;28;20030;-68
2022/11/04 14:13:41;;;;;;;26.00;5.47;;;;;;;;;;4990236;28;20506;-68
2022/11/04 14:16:16;;;;;;;7.07;2.20;;;;;;;;;;4965522;28;20503;-68
2022/11/04 14:18:43;;;;;;;10.35;1.75;;;;;;;;;;4988257;28;20057;-68
2022/11/04 14:21:08;;;;;;;7.88;2.45;;;;;;;;;;4988817;28;20022;-68
2022/11/04 14:23:34;;;;;;;9.45;2.38;;;;;;;;;;4986374;28;20033;-67
2022/11/04 14:26:01;;;;;;;6.63;1.63;;;;;;;;;;4991428;28;20023;-68
2022/11/04 14:28:28;;;;;;;5.72;1.80;;;;;;;;;;4987555;28;20478;-67
2022/11/04 14:30:54;;;;;;;8.90;2.13;;;;;;;;;;4978918;28;20034;-68
2022/11/04 14:33:38;;;;;;;6.88;2.10;;;;;;;;;;4980284;28;20431;-68
2022/11/04 14:36:14;;;;;;;14.32;2.22;;;;;;;;;;4977179;28;20494;-67
2022/11/04 14:38:41;;;;;;;8.20;1.92;;;;;;;;;;4992006;28;20022;-68
2022/11/04 14:41:25;;;;;;;8.35;2.55;;;;;;;;;;4985772;28;20519;-68
2022/11/04 14:43:52;;;;;;;8.77;1.88;;;;;;;;;;4986134;28;20010;-68
2022/11/04 14:46:19;;;;;;;8.02;2.05;;;;;;;;;;4981199;28;20053;-68
2022/11/04 14:48:50;;;;;;;6.70;1.77;;;;;;;;;;4986694;28;20029;-68
2022/11/04 14:51:22;;;;;;;7.78;2.08;;;;;;;;;;4981174;28;20041;-68
2022/11/04 14:53:47;;;;;;;13.40;2.75;;;;;;;;;;4981984;28;20483;-68
2022/11/04 14:56:14;;;;;;;11.38;2.90;;;;;;;;;;5000488;28;20037;-68
2022/11/04 14:58:50;;;;;;;8.02;2.38;;;;;;;;;;4985900;28;20026;-68
2022/11/04 15:01:15;;;;;;;12.32;3.20;;;;;;;;;;4984699;28;20058;-68
2022/11/04 15:03:40;;;;;;;11.35;2.17;;;;;;;;;;4982940;28;20053;-68
2022/11/04 15:06:06;;;;;;;13.50;3.45;;;;;;;;;;4983707;28;20104;-68
2022/11/04 15:08:37;;;;;;;13.50;2.55;;;;;;;;;;4983920;28;20050;-68
2022/11/04 15:11:04;;;;;;;11.57;2.50;;;;;;;;;;4980035;28;20118;-68
2022/11/04 15:13:37;;;;;;;19.85;2.47;;;;;;;;;;4982677;28;20089;-68
2022/11/04 15:16:12;;;;;;;11.90;2.65;;;;;;;;;;4982339;28;20566;-68
2022/11/04 15:18:38;;;;;;;12.07;2.78;;;;;;;;;;4975202;28;20372;-68
2022/11/04 15:21:04;;;;;;;13.23;2.90;;;;;;;;;;4980557;28;20026;-68
2022/11/04 15:23:35;;;;;;;16.05;3.28;;;;;;;;;;4981934;28;20031;-68